Time;durP1;ratioP1;P1;durP2;ratioP2;P2;SDS_P1;SDS_P2;PMS_P1;PMS_P2;Temp;Humidity;BMP_temperature;BMP_pressure;BME280_temperature;BME280_humidity;BME280_pressure;Samples;Min_cycle;Max_cycle;Signal;HPM_P1;HPM_P2
2023/03/19 00:00:38;;;;;;;17.00;8.60;;;11.80;67.30;;;;;;6061828;23;20238;-74
2023/03/19 00:03:06;;;;;;;15.03;8.33;;;11.80;67.40;;;;;;6061002;23;20178;-73
2023/03/19 00:05:36;;;;;;;16.20;7.90;;;11.70;67.50;;;;;;6063001;23;20669;-74
2023/03/19 00:08:05;;;;;;;14.80;7.87;;;11.70;67.60;;;;;;6063220;23;20178;-73
2023/03/19 00:10:37;;;;;;;14.87;7.90;;;11.60;67.60;;;;;;6064287;23;20246;-73
2023/03/19 00:13:05;;;;;;;16.20;8.60;;;11.60;67.70;;;;;;6062115;23;20570;-73
2023/03/19 00:15:34;;;;;;;17.50;8.43;;;11.60;67.80;;;;;;6062454;23;20199;-74
2023/03/19 00:18:04;;;;;;;17.17;8.70;;;11.50;67.80;;;;;;6063143;23;20209;-73
2023/03/19 00:20:33;;;;;;;17.43;8.10;;;11.50;68.00;;;;;;6064445;23;20280;-73
2023/03/19 00:23:03;;;;;;;18.50;8.70;;;11.50;68.00;;;;;;6062860;23;20589;-74
2023/03/19 00:25:32;;;;;;;19.23;8.70;;;11.40;68.10;;;;;;6063499;23;20504;-73
2023/03/19 00:28:01;;;;;;;17.27;9.20;;;11.40;68.20;;;;;;6064701;23;20186;-73
2023/03/19 00:30:29;;;;;;;14.63;8.33;;;11.30;68.20;;;;;;6065572;23;20546;-73
2023/03/19 00:32:57;;;;;;;16.27;8.30;;;11.30;68.30;;;;;;6065785;23;20178;-73
2023/03/19 00:35:26;;;;;;;17.97;9.87;;;11.30;68.40;;;;;;6064582;23;20258;-73
2023/03/19 00:37:54;;;;;;;19.80;9.17;;;11.20;68.40;;;;;;6062806;23;20202;-73
2023/03/19 00:40:24;;;;;;;17.03;8.57;;;11.20;68.50;;;;;;6063117;23;20178;-73
2023/03/19 00:42:52;;;;;;;17.03;8.97;;;11.10;68.60;;;;;;6064451;23;20178;-73
2023/03/19 00:45:20;;;;;;;15.53;8.10;;;11.10;68.70;;;;;;6063831;23;20182;-73
2023/03/19 00:47:49;;;;;;;19.07;8.50;;;11.10;68.80;;;;;;6064366;23;20178;-74
2023/03/19 00:50:17;;;;;;;16.50;8.33;;;11.10;68.90;;;;;;6064873;23;20245;-74
2023/03/19 00:52:46;;;;;;;17.27;8.77;;;11.00;69.10;;;;;;6063722;23;20230;-73
2023/03/19 00:55:14;;;;;;;18.03;9.10;;;11.00;69.30;;;;;;6063725;23;20190;-73
2023/03/19 00:57:44;;;;;;;20.67;9.57;;;11.00;69.70;;;;;;6013415;23;1216993;-73
2023/03/19 01:00:14;;;;;;;16.73;9.23;;;10.90;70.00;;;;;;6068032;23;20166;-74
2023/03/19 01:02:41;;;;;;;21.20;10.00;;;10.90;70.20;;;;;;6066341;23;20192;-73
2023/03/19 01:05:09;;;;;;;17.83;8.67;;;10.90;70.40;;;;;;6065861;23;20170;-73
2023/03/19 01:07:38;;;;;;;24.37;9.63;;;10.90;70.50;;;;;;6065956;23;20505;-74
2023/03/19 01:10:07;;;;;;;18.37;9.60;;;10.80;70.90;;;;;;6066712;23;20247;-73
2023/03/19 01:12:36;;;;;;;19.67;10.83;;;10.80;71.00;;;;;;6065405;23;20182;-74
2023/03/19 01:15:07;;;;;;;18.03;10.00;;;10.80;71.00;;;;;;6063216;23;20237;-73
2023/03/19 01:17:36;;;;;;;22.83;10.43;;;10.80;70.90;;;;;;6064578;23;20166;-73
2023/03/19 01:20:07;;;;;;;20.70;10.83;;;10.80;71.00;;;;;;6065540;23;20174;-73
2023/03/19 01:22:36;;;;;;;16.63;8.73;;;10.70;71.00;;;;;;6067394;23;20162;-73
2023/03/19 01:25:05;;;;;;;17.83;9.03;;;10.70;71.10;;;;;;6066187;23;20696;-74
2023/03/19 01:27:34;;;;;;;20.83;10.20;;;10.70;71.40;;;;;;6067444;23;20233;-74
2023/03/19 01:30:02;;;;;;;21.97;10.43;;;10.60;71.40;;;;;;6067457;23;20186;-73
2023/03/19 01:32:32;;;;;;;20.70;8.80;;;10.60;71.40;;;;;;6066314;23;20183;-74
2023/03/19 01:35:00;;;;;;;18.57;9.83;;;10.60;71.40;;;;;;6066547;23;20198;-73
2023/03/19 01:37:29;;;;;;;17.37;9.73;;;10.60;71.40;;;;;;6063964;23;20190;-73
2023/03/19 01:39:57;;;;;;;22.23;10.10;;;10.50;71.50;;;;;;6064922;23;20225;-73
2023/03/19 01:42:26;;;;;;;21.80;10.90;;;10.50;71.50;;;;;;6066336;23;20182;-73
2023/03/19 01:44:54;;;;;;;21.50;10.20;;;10.50;71.70;;;;;;6064988;23;20187;-73
2023/03/19 01:47:30;;;;;;;21.83;10.57;;;10.50;71.80;;;;;;6066119;23;20186;-73
2023/03/19 01:50:00;;;;;;;21.47;10.40;;;10.40;71.80;;;;;;6063055;23;20159;-74
2023/03/19 01:52:33;;;;;;;19.97;9.30;;;10.40;71.80;;;;;;6066065;23;20178;-73
2023/03/19 01:55:06;;;;;;;19.20;10.13;;;10.30;71.90;;;;;;6064181;23;20242;-73
2023/03/19 01:57:35;;;;;;;19.63;9.57;;;10.30;72.00;;;;;;6062568;23;20202;-73
2023/03/19 02:00:06;;;;;;;21.47;10.43;;;10.30;72.00;;;;;;6065406;23;20179;-73
2023/03/19 02:02:37;;;;;;;21.53;10.63;;;10.30;72.20;;;;;;6065586;23;20619;-73
2023/03/19 02:05:10;;;;;;;22.80;10.60;;;10.20;72.30;;;;;;6065317;23;20159;-73
2023/03/19 02:07:41;;;;;;;21.63;11.07;;;10.20;72.30;;;;;;6064408;23;20159;-73
2023/03/19 02:10:12;;;;;;;23.97;11.03;;;10.20;72.40;;;;;;6066534;23;20182;-73
2023/03/19 02:12:40;;;;;;;21.37;10.60;;;10.10;72.50;;;;;;6062706;23;20182;-73
2023/03/19 02:15:09;;;;;;;23.33;10.33;;;10.10;72.50;;;;;;6063039;23;20185;-74
2023/03/19 02:17:38;;;;;;;21.83;9.90;;;10.10;72.60;;;;;;6062370;23;20640;-73
2023/03/19 02:20:16;;;;;;;22.80;10.37;;;10.00;72.60;;;;;;6066185;23;20174;-73
2023/03/19 02:22:51;;;;;;;21.33;10.60;;;10.00;72.70;;;;;;6066268;23;20168;-73
2023/03/19 02:25:27;;;;;;;21.83;10.87;;;10.00;72.70;;;;;;6066427;23;20579;-74
2023/03/19 02:27:57;;;;;;;22.90;10.57;;;10.00;72.80;;;;;;6063152;23;20158;-73
2023/03/19 02:30:28;;;;;;;19.57;10.33;;;9.90;72.80;;;;;;6064938;23;20166;-73
2023/03/19 02:32:57;;;;;;;19.77;9.97;;;9.90;73.70;;;;;;6065103;23;20163;-73
2023/03/19 02:35:26;;;;;;;21.63;10.20;;;9.90;73.00;;;;;;6065637;23;20238;-75
2023/03/19 02:37:55;;;;;;;21.17;10.73;;;9.80;73.00;;;;;;6065045;23;20229;-73
2023/03/19 02:40:29;;;;;;;25.47;11.43;;;9.80;73.30;;;;;;6064013;23;20505;-74
2023/03/19 02:42:59;;;;;;;21.70;10.00;;;9.80;73.30;;;;;;6064017;23;20617;-73
2023/03/19 02:45:29;;;;;;;24.03;11.17;;;9.80;73.40;;;;;;6065919;23;20174;-73
2023/03/19 02:47:58;;;;;;;29.10;12.30;;;9.70;73.40;;;;;;6064958;23;20548;-73
2023/03/19 02:50:26;;;;;;;19.10;9.80;;;9.70;73.40;;;;;;6064827;23;20178;-73
2023/03/19 02:52:55;;;;;;;22.83;10.23;;;9.70;73.70;;;;;;6064376;23;20546;-73
2023/03/19 02:55:23;;;;;;;27.33;12.13;;;9.70;73.70;;;;;;6064577;23;20178;-75
2023/03/19 02:57:51;;;;;;;23.97;10.80;;;9.60;73.80;;;;;;6061429;23;20206;-75
2023/03/19 03:00:21;;;;;;;26.87;10.63;;;9.60;73.80;;;;;;6064133;23;20182;-73
2023/03/19 03:02:50;;;;;;;21.00;10.07;;;9.60;74.00;;;;;;6064528;23;20234;-74
2023/03/19 03:05:18;;;;;;;21.27;10.60;;;9.60;74.10;;;;;;6066778;23;20288;-73
2023/03/19 03:07:46;;;;;;;27.20;12.90;;;9.50;74.10;;;;;;6064963;23;20391;-73
2023/03/19 03:10:15;;;;;;;23.80;10.63;;;9.50;75.60;;;;;;6065541;23;20178;-73
2023/03/19 03:12:43;;;;;;;23.60;11.47;;;9.50;75.30;;;;;;6065793;23;20240;-73
2023/03/19 03:15:12;;;;;;;24.20;10.70;;;9.50;75.30;;;;;;6065342;23;20644;-73
2023/03/19 03:17:44;;;;;;;22.93;11.20;;;9.40;75.10;;;;;;6065624;23;20206;-73
2023/03/19 03:20:16;;;;;;;25.90;10.00;;;9.40;75.00;;;;;;6063564;23;20597;-73
2023/03/19 03:22:45;;;;;;;24.77;11.53;;;9.40;75.00;;;;;;6066066;23;20238;-74
2023/03/19 03:25:13;;;;;;;26.23;11.80;;;9.40;75.00;;;;;;6066345;23;20381;-75
2023/03/19 03:27:42;;;;;;;25.73;11.83;;;9.40;75.20;;;;;;6061858;23;20175;-73
2023/03/19 03:30:11;;;;;;;26.10;12.95;;;9.40;75.20;;;;;;6059498;23;20450;-75
2023/03/19 03:32:41;;;;;;;25.30;12.10;;;9.40;76.30;;;;;;6065316;23;20178;-73
2023/03/19 03:35:10;;;;;;;24.70;12.17;;;9.30;76.10;;;;;;6064090;23;20493;-74
2023/03/19 03:37:38;;;;;;;27.30;11.87;;;9.30;76.00;;;;;;6066837;23;20253;-73
2023/03/19 03:40:08;;;;;;;24.70;12.10;;;9.30;75.90;;;;;;6063278;23;20178;-74
2023/03/19 03:42:37;;;;;;;30.23;12.23;;;9.30;75.90;;;;;;6061802;23;20640;-73
2023/03/19 03:45:06;;;;;;;27.33;11.83;;;9.30;75.90;;;;;;6063800;23;20267;-74
2023/03/19 03:47:34;;;;;;;27.10;11.77;;;9.30;76.00;;;;;;6065522;23;20238;-73
2023/03/19 03:50:05;;;;;;;26.10;12.40;;;9.40;76.20;;;;;;6064468;23;20186;-73
2023/03/19 03:52:33;;;;;;;26.40;12.60;;;9.40;76.20;;;;;;6064697;23;20169;-73
2023/03/19 03:55:02;;;;;;;22.43;11.17;;;9.40;76.30;;;;;;6064427;23;20178;-73
2023/03/19 03:57:30;;;;;;;25.30;10.87;;;9.40;76.30;;;;;;6064811;23;20210;-73
2023/03/19 03:59:59;;;;;;;25.80;11.47;;;9.40;76.30;;;;;;6064465;23;20237;-73
2023/03/19 04:02:27;;;;;;;24.27;11.87;;;9.30;76.20;;;;;;6064546;23;20268;-73
2023/03/19 04:04:56;;;;;;;26.33;12.63;;;9.30;76.30;;;;;;6065342;23;20175;-75
2023/03/19 04:07:25;;;;;;;26.50;11.03;;;9.30;76.40;;;;;;6064474;23;20233;-73
2023/03/19 04:09:54;;;;;;;28.23;12.30;;;9.30;76.30;;;;;;6064409;23;20182;-75
2023/03/19 04:12:22;;;;;;;24.10;11.67;;;9.30;76.30;;;;;;6063323;23;20632;-73
2023/03/19 04:14:51;;;;;;;27.93;13.13;;;9.30;76.30;;;;;;6064839;23;20178;-74
2023/03/19 04:17:19;;;;;;;31.93;17.07;;;9.30;76.30;;;;;;6064530;23;20664;-73
2023/03/19 04:19:48;;;;;;;30.63;16.27;;;9.30;76.40;;;;;;6064855;23;20186;-73
2023/03/19 04:22:16;;;;;;;29.60;14.03;;;9.30;76.40;;;;;;6063239;23;20636;-73
2023/03/19 04:24:45;;;;;;;27.77;14.77;;;9.20;76.50;;;;;;6063034;23;20174;-73
2023/03/19 04:27:14;;;;;;;32.07;14.33;;;9.20;76.40;;;;;;6063734;23;20178;-73
2023/03/19 04:29:42;;;;;;;28.50;13.57;;;9.20;76.50;;;;;;6065201;23;20704;-73
2023/03/19 04:32:11;;;;;;;26.93;14.00;;;9.20;76.50;;;;;;6064248;23;20238;-73
2023/03/19 04:34:40;;;;;;;26.17;13.80;;;9.20;76.60;;;;;;6063863;23;20561;-73
2023/03/19 04:37:09;;;;;;;32.67;14.53;;;9.20;76.70;;;;;;6062862;23;20198;-74
2023/03/19 04:39:38;;;;;;;25.77;12.70;;;9.20;76.80;;;;;;6064450;23;20249;-73
2023/03/19 04:42:08;;;;;;;27.67;13.17;;;9.20;76.70;;;;;;6063782;23;20613;-74
2023/03/19 04:44:36;;;;;;;26.40;11.63;;;9.10;76.80;;;;;;6064024;23;20640;-73
2023/03/19 04:47:05;;;;;;;23.00;12.03;;;9.10;77.00;;;;;;6061842;23;20181;-73
2023/03/19 04:49:34;;;;;;;28.13;12.47;;;9.10;76.90;;;;;;6065529;23;20229;-73
2023/03/19 04:52:02;;;;;;;21.00;11.40;;;9.10;77.10;;;;;;6063535;23;20559;-73
2023/03/19 04:54:30;;;;;;;26.40;11.70;;;9.10;77.50;;;;;;6063176;23;20214;-73
2023/03/19 04:56:59;;;;;;;23.40;11.60;;;9.10;77.80;;;;;;6064544;23;20281;-74
2023/03/19 04:59:28;;;;;;;30.33;12.20;;;9.10;78.20;;;;;;6065044;23;20624;-74
2023/03/19 05:01:57;;;;;;;28.77;12.13;;;9.10;79.20;;;;;;6062631;23;20210;-74
2023/03/19 05:04:26;;;;;;;26.37;12.97;;;9.00;78.00;;;;;;6063695;23;20196;-74
2023/03/19 05:06:54;;;;;;;25.97;12.50;;;9.00;78.10;;;;;;6064820;23;20185;-73
2023/03/19 05:09:22;;;;;;;26.87;12.93;;;9.00;78.50;;;;;;6064863;23;20189;-73
2023/03/19 05:11:51;;;;;;;22.50;11.20;;;9.00;78.20;;;;;;6064604;23;20178;-74
2023/03/19 05:14:19;;;;;;;21.70;10.90;;;9.00;78.30;;;;;;6064626;23;20178;-74
2023/03/19 05:16:49;;;;;;;27.23;11.30;;;9.00;78.30;;;;;;6067374;23;20696;-73
2023/03/19 05:19:17;;;;;;;24.23;11.67;;;9.00;78.50;;;;;;6067962;23;20226;-74
2023/03/19 05:21:46;;;;;;;23.27;11.77;;;9.00;78.80;;;;;;6067829;23;20182;-74
2023/03/19 05:24:14;;;;;;;24.00;11.40;;;8.90;78.90;;;;;;6067010;23;20224;-74
2023/03/19 05:26:42;;;;;;;26.13;12.33;;;8.90;78.60;;;;;;6064706;23;20178;-74
2023/03/19 05:29:12;;;;;;;23.03;12.23;;;9.00;78.60;;;;;;6065757;23;20632;-74
2023/03/19 05:31:41;;;;;;;23.10;11.60;;;9.00;78.90;;;;;;6066327;23;20230;-74
2023/03/19 05:34:10;;;;;;;22.90;12.13;;;9.00;79.10;;;;;;6064081;23;20182;-74
2023/03/19 05:36:39;;;;;;;25.53;12.37;;;9.00;78.80;;;;;;6064931;23;20174;-75
2023/03/19 05:39:07;;;;;;;26.43;12.77;;;9.00;78.80;;;;;;6067520;23;20238;-74
2023/03/19 05:41:35;;;;;;;23.63;12.67;;;9.00;78.60;;;;;;6066074;23;20696;-74
2023/03/19 05:44:04;;;;;;;24.30;12.27;;;9.10;78.80;;;;;;6066495;23;20226;-74
2023/03/19 05:46:32;;;;;;;22.47;11.97;;;9.10;78.80;;;;;;6065686;23;20696;-74
2023/03/19 05:49:01;;;;;;;23.63;11.20;;;9.10;78.80;;;;;;6066184;23;20210;-74
2023/03/19 05:51:31;;;;;;;29.87;13.57;;;9.20;79.00;;;;;;6066053;23;20185;-74
2023/03/19 05:53:59;;;;;;;24.40;12.43;;;9.20;79.00;;;;;;6066003;23;20178;-74
2023/03/19 05:56:27;;;;;;;25.43;13.27;;;9.30;79.00;;;;;;6064939;23;20234;-74
2023/03/19 05:58:56;;;;;;;21.50;11.30;;;9.30;79.00;;;;;;6064304;23;20234;-75
2023/03/19 06:01:24;;;;;;;23.07;12.23;;;9.30;79.20;;;;;;6063885;23;20556;-74
2023/03/19 06:03:53;;;;;;;27.50;12.80;;;9.40;79.30;;;;;;6065171;23;20181;-74
2023/03/19 06:06:21;;;;;;;23.47;12.33;;;9.40;79.30;;;;;;6066686;23;20174;-74
2023/03/19 06:08:51;;;;;;;25.60;12.73;;;9.50;79.40;;;;;;6066831;23;20246;-75
2023/03/19 06:11:20;;;;;;;23.63;13.53;;;9.50;79.50;;;;;;6066651;23;20166;-74
2023/03/19 06:13:48;;;;;;;29.27;13.47;;;9.50;79.40;;;;;;6066534;23;20704;-74
2023/03/19 06:16:16;;;;;;;28.93;14.33;;;9.60;79.40;;;;;;6067781;23;20253;-74
2023/03/19 06:18:46;;;;;;;27.13;13.77;;;9.70;79.50;;;;;;6066894;23;20678;-74
2023/03/19 06:21:14;;;;;;;29.70;13.80;;;9.70;79.50;;;;;;6066362;23;20238;-74
2023/03/19 06:23:42;;;;;;;30.13;14.10;;;9.80;79.60;;;;;;6064163;23;20237;-75
2023/03/19 06:26:12;;;;;;;33.53;14.60;;;9.90;79.60;;;;;;6065113;23;20182;-74
2023/03/19 06:28:41;;;;;;;28.63;13.87;;;9.90;79.40;;;;;;6067064;23;20178;-74
2023/03/19 06:31:09;;;;;;;27.03;14.40;;;10.00;79.40;;;;;;6066436;23;20237;-74
2023/03/19 06:33:37;;;;;;;29.17;14.20;;;10.00;79.50;;;;;;6066971;23;20233;-74
2023/03/19 06:36:06;;;;;;;28.83;14.27;;;10.10;80.00;;;;;;6067663;23;20178;-75
2023/03/19 06:38:35;;;;;;;27.50;14.23;;;10.20;80.00;;;;;;6067251;23;20200;-74
2023/03/19 06:41:04;;;;;;;24.60;12.97;;;10.30;80.00;;;;;;6066458;23;20178;-73
2023/03/19 06:43:40;;;;;;;35.20;14.50;;;10.30;79.90;;;;;;6063827;23;20178;-76
2023/03/19 06:46:10;;;;;;;27.27;14.50;;;10.40;80.10;;;;;;6064580;23;20163;-76
2023/03/19 06:48:39;;;;;;;28.60;14.57;;;10.50;80.20;;;;;;6039273;23;20175;-73
2023/03/19 06:51:08;;;;;;;33.37;14.93;;;10.60;80.10;;;;;;6067557;23;20237;-73
2023/03/19 06:53:36;;;;;;;34.67;13.90;;;10.70;80.00;;;;;;6066435;23;20174;-74
2023/03/19 06:56:05;;;;;;;30.90;13.83;;;10.80;80.20;;;;;;6063433;23;20182;-74
2023/03/19 06:58:34;;;;;;;29.43;15.20;;;10.90;80.20;;;;;;6066749;23;20202;-73
2023/03/19 07:01:04;;;;;;;29.57;15.43;;;11.00;80.00;;;;;;6067354;23;20178;-74
2023/03/19 07:03:33;;;;;;;32.93;16.03;;;11.10;79.90;;;;;;6067161;23;20165;-73
2023/03/19 07:06:01;;;;;;;26.20;13.07;;;11.20;80.00;;;;;;6065445;23;20174;-74
2023/03/19 07:08:30;;;;;;;27.23;12.77;;;11.30;79.80;;;;;;6067079;23;20174;-74
2023/03/19 07:11:02;;;;;;;28.83;13.83;;;11.40;79.70;;;;;;6068238;23;20245;-73
2023/03/19 07:13:31;;;;;;;35.00;13.83;;;11.40;79.70;;;;;;6066480;23;20167;-73
2023/03/19 07:16:00;;;;;;;23.97;12.03;;;11.60;79.50;;;;;;6066202;23;20182;-74
2023/03/19 07:18:30;;;;;;;28.77;12.70;;;11.60;79.50;;;;;;6066897;23;20190;-74
2023/03/19 07:20:58;;;;;;;31.77;13.20;;;11.70;79.70;;;;;;6066669;23;20179;-73
2023/03/19 07:23:27;;;;;;;28.33;13.43;;;11.80;79.50;;;;;;6066019;23;20225;-73
2023/03/19 07:25:55;;;;;;;26.87;12.47;;;11.90;79.30;;;;;;6067705;23;20235;-74
2023/03/19 07:28:24;;;;;;;27.47;13.10;;;12.00;79.20;;;;;;6064843;23;20557;-74
2023/03/19 07:30:53;;;;;;;23.90;12.73;;;12.10;79.00;;;;;;6060066;23;20257;-73
2023/03/19 07:33:22;;;;;;;25.07;12.20;;;12.20;79.00;;;;;;6059463;23;20242;-73
2023/03/19 07:35:51;;;;;;;26.33;12.53;;;12.30;78.60;;;;;;6064056;23;20221;-73
2023/03/19 07:38:20;;;;;;;29.60;13.43;;;12.30;78.20;;;;;;6065987;23;20598;-73
2023/03/19 07:40:49;;;;;;;30.67;13.13;;;12.30;78.20;;;;;;6064059;23;20179;-73
2023/03/19 07:43:30;;;;;;;26.70;12.90;;;12.40;78.10;;;;;;6064993;23;20170;-74
2023/03/19 07:46:01;;;;;;;25.80;11.97;;;12.40;77.80;;;;;;6064897;23;20609;-74
2023/03/19 07:48:30;;;;;;;25.53;12.97;;;12.40;77.50;;;;;;6064825;23;20629;-73
2023/03/19 07:51:00;;;;;;;22.53;12.83;;;12.50;77.10;;;;;;6064845;23;20702;-74
2023/03/19 07:53:28;;;;;;;24.57;12.80;;;12.60;77.20;;;;;;6066176;23;20186;-74
2023/03/19 07:55:57;;;;;;;25.00;12.67;;;12.70;76.60;;;;;;6066510;23;20249;-74
2023/03/19 07:58:25;;;;;;;21.80;11.63;;;12.70;76.30;;;;;;6064095;23;20667;-74
2023/03/19 08:00:54;;;;;;;24.67;12.17;;;12.80;76.30;;;;;;6064695;23;20178;-73
2023/03/19 08:03:22;;;;;;;25.10;11.73;;;12.80;75.80;;;;;;6064615;23;20644;-74
2023/03/19 08:05:51;;;;;;;25.77;12.43;;;12.90;75.70;;;;;;6063120;23;20707;-74
2023/03/19 08:08:21;;;;;;;22.00;11.33;;;12.90;75.30;;;;;;6064801;23;20175;-73
2023/03/19 08:10:49;;;;;;;27.00;13.30;;;12.90;75.00;;;;;;6064727;23;20578;-74
2023/03/19 08:13:18;;;;;;;25.47;12.40;;;12.90;74.60;;;;;;6065156;23;20491;-75
2023/03/19 08:15:46;;;;;;;24.20;11.13;;;13.00;74.70;;;;;;6064704;23;20182;-74
2023/03/19 08:18:14;;;;;;;24.70;12.53;;;13.10;74.70;;;;;;6064885;23;20182;-74
2023/03/19 08:20:44;;;;;;;22.23;12.17;;;13.20;74.60;;;;;;6064472;23;20190;-74
2023/03/19 08:23:13;;;;;;;21.87;11.63;;;13.20;73.60;;;;;;6064001;23;20496;-76
2023/03/19 08:25:44;;;;;;;26.00;12.00;;;13.20;73.40;;;;;;6064776;23;20258;-74
2023/03/19 08:28:12;;;;;;;22.47;11.57;;;13.20;72.70;;;;;;6061287;23;20185;-75
2023/03/19 08:30:40;;;;;;;26.00;11.90;;;13.30;73.00;;;;;;6064138;23;20477;-74
2023/03/19 08:33:09;;;;;;;26.57;12.73;;;13.30;72.90;;;;;;6061940;23;20186;-74
2023/03/19 08:35:37;;;;;;;25.23;11.80;;;13.40;72.90;;;;;;6062113;23;20193;-74
2023/03/19 08:38:05;;;;;;;24.33;11.70;;;13.50;73.10;;;;;;6064861;23;20178;-74
2023/03/19 08:40:34;;;;;;;25.33;12.40;;;13.60;73.50;;;;;;6062381;23;20245;-74
2023/03/19 08:43:05;;;;;;;23.03;11.60;;;13.60;73.50;;;;;;6063259;23;20182;-76
2023/03/19 08:45:33;;;;;;;21.83;11.67;;;13.70;73.10;;;;;;6064228;23;20188;-75
2023/03/19 08:48:02;;;;;;;22.67;11.03;;;13.70;72.00;;;;;;6064406;23;20702;-75
2023/03/19 08:50:31;;;;;;;22.87;10.73;;;13.80;72.20;;;;;;6065269;23;20175;-75
2023/03/19 08:52:59;;;;;;;24.57;11.33;;;13.80;72.10;;;;;;6065593;23;20185;-75
2023/03/19 08:55:28;;;;;;;20.57;9.87;;;13.90;71.80;;;;;;6064979;23;20190;-75
2023/03/19 08:57:56;;;;;;;20.53;10.40;;;13.90;71.00;;;;;;6062482;23;20243;-75
2023/03/19 09:00:26;;;;;;;19.60;9.67;;;13.90;70.00;;;;;;6063042;23;20202;-75
2023/03/19 09:02:55;;;;;;;20.63;9.20;;;13.90;69.40;;;;;;6063971;23;20166;-74
2023/03/19 09:05:23;;;;;;;22.37;11.00;;;14.00;69.20;;;;;;6061973;23;20182;-75
2023/03/19 09:07:52;;;;;;;23.60;11.60;;;14.10;69.50;;;;;;6062668;23;20190;-76
2023/03/19 09:10:20;;;;;;;21.67;10.77;;;14.10;70.10;;;;;;6064338;23;20198;-75
2023/03/19 09:12:48;;;;;;;20.50;11.10;;;14.10;70.00;;;;;;6062657;23;20190;-76
2023/03/19 09:15:17;;;;;;;21.07;10.97;;;14.20;70.20;;;;;;6063804;23;20204;-75
2023/03/19 09:17:46;;;;;;;23.83;11.23;;;14.30;69.50;;;;;;6065404;23;20186;-75
2023/03/19 09:20:15;;;;;;;22.33;11.60;;;14.40;69.40;;;;;;6065136;23;20194;-75
2023/03/19 09:22:43;;;;;;;25.73;12.20;;;14.40;69.40;;;;;;6065371;23;20178;-75
2023/03/19 09:25:12;;;;;;;22.40;11.83;;;14.50;69.70;;;;;;6064806;23;20668;-75
2023/03/19 09:27:40;;;;;;;25.43;12.93;;;14.50;69.60;;;;;;6063794;23;20207;-75
2023/03/19 09:30:10;;;;;;;23.83;12.63;;;14.50;69.40;;;;;;6065336;23;20199;-75
2023/03/19 09:32:38;;;;;;;22.80;11.40;;;14.50;69.40;;;;;;6064967;23;20230;-75
2023/03/19 09:35:09;;;;;;;21.40;11.50;;;14.50;69.30;;;;;;6062222;23;20178;-75
2023/03/19 09:37:37;;;;;;;25.67;13.23;;;14.50;69.10;;;;;;6062370;23;20171;-75
2023/03/19 09:40:07;;;;;;;25.23;12.23;;;14.50;69.20;;;;;;6063979;23;20249;-75
2023/03/19 09:42:52;;;;;;;22.60;11.77;;;14.60;69.20;;;;;;6062535;23;20238;-75
2023/03/19 09:45:20;;;;;;;17.50;10.93;;;14.60;68.40;;;;;;6065857;23;20190;-75
2023/03/19 09:47:54;;;;;;;25.03;12.00;;;14.60;67.70;;;;;;6065180;23;20341;-74
2023/03/19 09:50:27;;;;;;;19.53;11.30;;;14.70;68.20;;;;;;6068260;23;20159;-74
2023/03/19 09:53:01;;;;;;;17.97;10.40;;;14.80;68.30;;;;;;6066885;23;20162;-75
2023/03/19 09:55:38;;;;;;;25.07;10.93;;;14.80;67.60;;;;;;6067241;23;20238;-75
2023/03/19 09:58:14;;;;;;;20.60;9.97;;;14.90;67.50;;;;;;6065660;23;20202;-75
2023/03/19 10:00:44;;;;;;;18.27;10.37;;;15.00;67.20;;;;;;6063774;23;20202;-75
2023/03/19 10:03:26;;;;;;;19.60;10.50;;;15.00;66.10;;;;;;6065583;23;20178;-76
2023/03/19 10:06:09;;;;;;;22.60;11.50;;;15.10;65.10;;;;;;6066462;23;20163;-75
2023/03/19 10:09:01;;;;;;;19.80;10.30;;;15.10;65.20;;;;;;6067060;23;20250;-75
2023/03/19 10:11:49;;;;;;;22.45;10.45;;;15.10;64.20;;;;;;6066082;23;20413;-74
2023/03/19 10:14:37;;;;;;;18.67;9.43;;;15.20;64.30;;;;;;6064003;23;20174;-73
2023/03/19 10:17:11;;;;;;;21.90;10.63;;;15.30;64.30;;;;;;6065706;23;20624;-74
2023/03/19 10:19:45;;;;;;;18.63;10.33;;;15.40;64.70;;;;;;6065381;23;20186;-75
2023/03/19 10:22:18;;;;;;;17.33;9.77;;;15.50;64.60;;;;;;6066143;23;20167;-75
2023/03/19 10:24:48;;;;;;;19.33;9.37;;;15.50;63.90;;;;;;6058852;23;20163;-77
2023/03/19 10:27:20;;;;;;;16.70;8.47;;;15.60;62.60;;;;;;6061043;23;20194;-75
2023/03/19 10:29:49;;;;;;;22.93;9.07;;;15.70;62.30;;;;;;6064153;23;20163;-76
2023/03/19 10:32:19;;;;;;;14.60;8.33;;;15.70;61.30;;;;;;6065687;23;20178;-74
2023/03/19 10:34:49;;;;;;;23.03;10.93;;;15.80;60.80;;;;;;6064503;23;20163;-75
2023/03/19 10:37:21;;;;;;;15.83;8.73;;;15.80;60.70;;;;;;6065078;23;20182;-74
2023/03/19 10:39:51;;;;;;;15.50;9.13;;;15.90;61.10;;;;;;6064102;23;20183;-75
2023/03/19 10:42:38;;;;;;;15.33;8.87;;;16.00;60.60;;;;;;6065403;23;20176;-75
2023/03/19 10:45:20;;;;;;;17.80;8.60;;;16.10;60.20;;;;;;6063428;23;20163;-77
2023/03/19 10:47:48;;;;;;;13.00;8.10;;;16.20;59.30;;;;;;6059733;23;20167;-76
2023/03/19 10:50:19;;;;;;;13.70;8.37;;;16.30;59.50;;;;;;6065815;23;20174;-76
2023/03/19 10:52:59;;;;;;;19.67;10.33;;;16.30;59.20;;;;;;6073267;23;20191;-76
2023/03/19 10:55:31;;;;;;;18.17;9.67;;;16.30;59.60;;;;;;6069782;23;20159;-75
2023/03/19 10:58:04;;;;;;;16.60;8.87;;;16.40;60.00;;;;;;6066683;23;20206;-76
2023/03/19 11:00:34;;;;;;;12.93;7.00;;;16.50;59.50;;;;;;6066999;23;20197;-76
2023/03/19 11:03:04;;;;;;;11.67;6.80;;;16.50;59.40;;;;;;6066338;23;20182;-75
2023/03/19 11:05:34;;;;;;;13.33;7.00;;;16.60;58.60;;;;;;6068089;23;20660;-75
2023/03/19 11:08:07;;;;;;;12.27;6.67;;;16.60;58.70;;;;;;6066343;23;20506;-76
2023/03/19 11:10:36;;;;;;;11.37;6.10;;;16.70;57.30;;;;;;6066058;23;20159;-75
2023/03/19 11:13:07;;;;;;;12.93;7.57;;;16.70;57.70;;;;;;6065051;23;20256;-76
2023/03/19 11:15:38;;;;;;;17.83;8.67;;;16.80;57.30;;;;;;6067228;23;20193;-75
2023/03/19 11:18:14;;;;;;;17.63;10.17;;;16.90;57.50;;;;;;6066959;23;20165;-76
2023/03/19 11:20:48;;;;;;;14.80;8.53;;;16.90;57.50;;;;;;6066927;23;20250;-76
2023/03/19 11:23:20;;;;;;;13.40;7.27;;;17.00;57.90;;;;;;6064973;23;20159;-75
2023/03/19 11:25:51;;;;;;;12.43;7.03;;;17.10;58.10;;;;;;6064577;23;20170;-77
2023/03/19 11:28:28;;;;;;;11.30;6.47;;;17.10;57.50;;;;;;6060215;23;20163;-76
2023/03/19 11:31:06;;;;;;;12.80;6.37;;;17.20;57.60;;;;;;5975724;24;20571;-75
2023/03/19 11:33:57;;;;;;;13.57;6.80;;;17.30;57.80;;;;;;5974027;24;20164;-76
2023/03/19 11:36:30;;;;;;;13.03;6.03;;;17.40;57.30;;;;;;5975093;24;20830;-75
2023/03/19 11:39:14;;;;;;;14.30;7.07;;;17.40;56.90;;;;;;5973484;24;20164;-75
2023/03/19 11:41:58;;;;;;;11.60;6.27;;;17.50;56.20;;;;;;5975227;24;20231;-75
2023/03/19 11:44:32;;;;;;;14.63;6.60;;;17.50;55.70;;;;;;5977028;24;20165;-75
2023/03/19 11:47:07;;;;;;;14.93;5.90;;;17.60;54.70;;;;;;5978006;24;20703;-76
2023/03/19 11:50:17;;;;;;;13.00;6.63;;;17.60;54.50;;;;;;5976160;24;20187;-76
2023/03/19 11:52:59;;;;;;;12.70;6.20;;;17.60;53.90;;;;;;5974248;24;20220;-76
2023/03/19 11:55:35;;;;;;;12.10;7.13;;;17.70;54.60;;;;;;5978655;24;20201;-76
2023/03/19 11:58:43;;;;;;;14.63;6.90;;;17.80;54.00;;;;;;5976669;24;20214;-76
2023/03/19 12:01:18;;;;;;;11.50;5.27;;;17.90;54.20;;;;;;5990795;23;20667;-77
2023/03/19 12:04:11;;;;;;;10.87;5.97;;;18.00;54.80;;;;;;6062942;23;20190;-76
2023/03/19 12:06:53;;;;;;;10.07;5.43;;;18.10;54.20;;;;;;6066294;23;20609;-77
2023/03/19 12:09:29;;;;;;;11.63;5.57;;;18.20;54.20;;;;;;6066418;23;20171;-75
2023/03/19 12:12:09;;;;;;;12.53;7.17;;;18.30;53.40;;;;;;6065169;23;20233;-76
2023/03/19 12:14:48;;;;;;;13.57;5.87;;;18.30;52.90;;;;;;6065566;23;20249;-76
2023/03/19 12:17:40;;;;;;;13.60;6.23;;;18.40;53.60;;;;;;6067424;23;20596;-76
2023/03/19 12:20:22;;;;;;;12.80;7.53;;;18.40;53.50;;;;;;6062341;23;20163;-76
2023/03/19 12:23:05;;;;;;;12.40;7.50;;;18.50;53.00;;;;;;6066456;23;20159;-76
2023/03/19 12:26:03;;;;;;;11.97;5.83;;;18.60;52.80;;;;;;6067612;23;20166;-75
2023/03/19 12:28:35;;;;;;;11.83;5.33;;;18.60;52.40;;;;;;6067992;23;20192;-76
2023/03/19 12:31:28;;;;;;;10.10;5.70;;;18.70;51.80;;;;;;6068290;23;20159;-76
2023/03/19 12:34:07;;;;;;;43.57;23.43;;;18.80;51.50;;;;;;6055929;23;20178;-76
2023/03/19 12:36:41;;;;;;;15.10;5.43;;;18.90;51.50;;;;;;6067528;23;20166;-75
2023/03/19 12:39:13;;;;;;;10.23;5.13;;;19.00;51.60;;;;;;6067726;23;20170;-75
2023/03/19 12:41:47;;;;;;;10.87;5.13;;;19.10;52.70;;;;;;6065998;23;20498;-75
2023/03/19 12:44:22;;;;;;;8.07;4.30;;;19.10;52.00;;;;;;6067070;23;20162;-76
2023/03/19 12:46:56;;;;;;;13.70;5.87;;;19.30;52.40;;;;;;6064142;23;20162;-76
2023/03/19 12:49:31;;;;;;;11.00;5.50;;;19.30;51.00;;;;;;6066739;23;20197;-76
2023/03/19 12:52:06;;;;;;;9.13;4.72;;;19.40;50.70;;;;;;6067497;23;20660;-76